sensor_id;sensor_type;location;lat;lon;timestamp;temperature;humidity
22145;DHT22;11238;48.730;11.566;2022-12-29T00:01:19;3.20;99.90
22145;DHT22;11238;48.730;11.566;2022-12-29T00:03:48;3.20;99.90
22145;DHT22;11238;48.730;11.566;2022-12-29T00:06:13;3.20;99.90
22145;DHT22;11238;48.730;11.566;2022-12-29T00:08:39;3.20;99.90
22145;DHT22;11238;48.730;11.566;2022-12-29T00:11:16;3.20;99.90
22145;DHT22;11238;48.730;11.566;2022-12-29T00:13:42;3.20;99.90
22145;DHT22;11238;48.730;11.566;2022-12-29T00:16:27;3.20;99.90
22145;DHT22;11238;48.730;11.566;2022-12-29T00:18:52;3.10;99.90
22145;DHT22;11238;48.730;11.566;2022-12-29T00:21:21;3.10;99.90
22145;DHT22;11238;48.730;11.566;2022-12-29T00:24:06;3.10;99.90
22145;DHT22;11238;48.730;11.566;2022-12-29T00:27:09;3.20;99.90
22145;DHT22;11238;48.730;11.566;2022-12-29T00:29:54;3.20;99.90
22145;DHT22;11238;48.730;11.566;2022-12-29T00:32:38;3.10;99.90
22145;DHT22;11238;48.730;11.566;2022-12-29T00:35:35;3.10;99.90
22145;DHT22;11238;48.730;11.566;2022-12-29T00:38:05;3.20;99.90
22145;DHT22;11238;48.730;11.566;2022-12-29T00:40:51;3.10;99.90
22145;DHT22;11238;48.730;11.566;2022-12-29T00:43:35;3.10;99.90
22145;DHT22;11238;48.730;11.566;2022-12-29T00:46:20;3.10;99.90
22145;DHT22;11238;48.730;11.566;2022-12-29T00:48:46;3.10;99.90
22145;DHT22;11238;48.730;11.566;2022-12-29T00:51:42;3.10;99.90
22145;DHT22;11238;48.730;11.566;2022-12-29T00:54:07;3.10;99.90
22145;DHT22;11238;48.730;11.566;2022-12-29T00:56:34;3.10;99.90
22145;DHT22;11238;48.730;11.566;2022-12-29T00:59:05;3.10;99.90
22145;DHT22;11238;48.730;11.566;2022-12-29T01:01:32;3.10;99.90
22145;DHT22;11238;48.730;11.566;2022-12-29T01:03:58;3.10;99.90
22145;DHT22;11238;48.730;11.566;2022-12-29T01:06:24;3.00;99.90
22145;DHT22;11238;48.730;11.566;2022-12-29T01:08:50;3.00;99.90
22145;DHT22;11238;48.730;11.566;2022-12-29T01:11:38;2.90;99.90
22145;DHT22;11238;48.730;11.566;2022-12-29T01:14:06;2.90;99.90
22145;DHT22;11238;48.730;11.566;2022-12-29T01:16:32;2.90;99.90
22145;DHT22;11238;48.730;11.566;2022-12-29T01:18:58;2.90;99.90
22145;DHT22;11238;48.730;11.566;2022-12-29T01:21:24;2.90;99.90
22145;DHT22;11238;48.730;11.566;2022-12-29T01:23:51;2.90;99.90
22145;DHT22;11238;48.730;11.566;2022-12-29T01:26:17;2.90;99.90
22145;DHT22;11238;48.730;11.566;2022-12-29T01:28:45;2.90;99.90
22145;DHT22;11238;48.730;11.566;2022-12-29T01:31:13;2.90;99.90
22145;DHT22;11238;48.730;11.566;2022-12-29T01:33:39;2.80;99.90
22145;DHT22;11238;48.730;11.566;2022-12-29T01:36:07;2.70;99.90
22145;DHT22;11238;48.730;11.566;2022-12-29T01:38:34;2.70;99.90
22145;DHT22;11238;48.730;11.566;2022-12-29T01:41:01;2.70;99.90
22145;DHT22;11238;48.730;11.566;2022-12-29T01:43:46;2.70;99.90
22145;DHT22;11238;48.730;11.566;2022-12-29T01:46:34;2.70;99.90
22145;DHT22;11238;48.730;11.566;2022-12-29T01:49:21;2.70;99.90
22145;DHT22;11238;48.730;11.566;2022-12-29T01:51:48;2.60;99.90
22145;DHT22;11238;48.730;11.566;2022-12-29T01:54:26;2.60;99.90
22145;DHT22;11238;48.730;11.566;2022-12-29T01:56:56;2.60;99.90
22145;DHT22;11238;48.730;11.566;2022-12-29T01:59:28;2.60;99.90
22145;DHT22;11238;48.730;11.566;2022-12-29T02:01:55;2.70;99.90
22145;DHT22;11238;48.730;11.566;2022-12-29T02:04:22;2.60;99.90
22145;DHT22;11238;48.730;11.566;2022-12-29T02:07:07;2.60;99.90
22145;DHT22;11238;48.730;11.566;2022-12-29T02:09:36;2.70;99.90
22145;DHT22;11238;48.730;11.566;2022-12-29T02:12:02;2.70;99.90
22145;DHT22;11238;48.730;11.566;2022-12-29T02:14:28;2.70;99.90
22145;DHT22;11238;48.730;11.566;2022-12-29T02:17:16;2.60;99.90
22145;DHT22;11238;48.730;11.566;2022-12-29T02:31:17;2.70;99.90
22145;DHT22;11238;48.730;11.566;2022-12-29T02:34:57;2.70;99.90
22145;DHT22;11238;48.730;11.566;2022-12-29T02:37:13;2.80;99.90
22145;DHT22;11238;48.730;11.566;2022-12-29T02:45:02;2.80;99.90
22145;DHT22;11238;48.730;11.566;2022-12-29T02:47:51;2.70;99.90
22145;DHT22;11238;48.730;11.566;2022-12-29T02:50:27;2.60;99.90
22145;DHT22;11238;48.730;11.566;2022-12-29T02:53:01;2.60;99.90
22145;DHT22;11238;48.730;11.566;2022-12-29T02:55:28;2.50;99.90
22145;DHT22;11238;48.730;11.566;2022-12-29T02:58:16;2.50;99.90
22145;DHT22;11238;48.730;11.566;2022-12-29T03:01:11;2.90;99.90
22145;DHT22;11238;48.730;11.566;2022-12-29T03:07:00;2.90;99.90
22145;DHT22;11238;48.730;11.566;2022-12-29T03:09:43;2.90;99.90
22145;DHT22;11238;48.730;11.566;2022-12-29T03:15:35;2.90;99.90
22145;DHT22;11238;48.730;11.566;2022-12-29T03:18:49;2.90;99.90
22145;DHT22;11238;48.730;11.566;2022-12-29T03:21:34;3.00;99.90
22145;DHT22;11238;48.730;11.566;2022-12-29T03:24:24;3.00;99.90
22145;DHT22;11238;48.730;11.566;2022-12-29T03:26:53;3.10;99.90
22145;DHT22;11238;48.730;11.566;2022-12-29T03:29:20;3.10;99.90
22145;DHT22;11238;48.730;11.566;2022-12-29T03:31:49;3.10;99.90
22145;DHT22;11238;48.730;11.566;2022-12-29T03:34:17;3.10;99.90
22145;DHT22;11238;48.730;11.566;2022-12-29T03:36:51;3.20;99.90
22145;DHT22;11238;48.730;11.566;2022-12-29T03:39:20;3.20;99.90
22145;DHT22;11238;48.730;11.566;2022-12-29T03:41:51;3.30;99.90
22145;DHT22;11238;48.730;11.566;2022-12-29T03:44:18;3.30;99.90
22145;DHT22;11238;48.730;11.566;2022-12-29T03:46:45;3.30;99.90
22145;DHT22;11238;48.730;11.566;2022-12-29T03:49:11;3.50;99.90
22145;DHT22;11238;48.730;11.566;2022-12-29T03:51:38;3.50;99.90
22145;DHT22;11238;48.730;11.566;2022-12-29T03:54:05;3.50;99.90
22145;DHT22;11238;48.730;11.566;2022-12-29T03:56:31;3.50;99.90
22145;DHT22;11238;48.730;11.566;2022-12-29T03:59:01;3.40;99.90
22145;DHT22;11238;48.730;11.566;2022-12-29T04:01:30;3.40;99.90
22145;DHT22;11238;48.730;11.566;2022-12-29T04:03:56;3.40;99.90
22145;DHT22;11238;48.730;11.566;2022-12-29T04:06:22;3.40;99.90
22145;DHT22;11238;48.730;11.566;2022-12-29T04:08:58;3.40;99.90
22145;DHT22;11238;48.730;11.566;2022-12-29T04:11:24;3.40;99.90
22145;DHT22;11238;48.730;11.566;2022-12-29T04:13:50;3.40;99.90
22145;DHT22;11238;48.730;11.566;2022-12-29T04:16:20;3.30;99.90
22145;DHT22;11238;48.730;11.566;2022-12-29T04:18:46;3.40;99.90
22145;DHT22;11238;48.730;11.566;2022-12-29T04:21:12;3.40;99.90
22145;DHT22;11238;48.730;11.566;2022-12-29T04:23:40;3.40;99.90
22145;DHT22;11238;48.730;11.566;2022-12-29T04:26:08;3.40;99.90
22145;DHT22;11238;48.730;11.566;2022-12-29T04:28:43;3.40;99.90
22145;DHT22;11238;48.730;11.566;2022-12-29T04:31:20;3.40;99.90
22145;DHT22;11238;48.730;11.566;2022-12-29T04:33:48;3.40;99.90
22145;DHT22;11238;48.730;11.566;2022-12-29T04:36:15;3.40;99.90
22145;DHT22;11238;48.730;11.566;2022-12-29T04:38:42;3.50;99.90
22145;DHT22;11238;48.730;11.566;2022-12-29T04:41:08;3.50;99.90
22145;DHT22;11238;48.730;11.566;2022-12-29T04:43:37;3.40;99.90
22145;DHT22;11238;48.730;11.566;2022-12-29T04:46:14;3.50;99.90
22145;DHT22;11238;48.730;11.566;2022-12-29T04:49:03;3.50;99.90
22145;DHT22;11238;48.730;11.566;2022-12-29T04:52:06;3.50;99.90
22145;DHT22;11238;48.730;11.566;2022-12-29T04:54:34;3.50;99.90
22145;DHT22;11238;48.730;11.566;2022-12-29T04:57:07;3.50;99.90
22145;DHT22;11238;48.730;11.566;2022-12-29T04:59:36;3.50;99.90
22145;DHT22;11238;48.730;11.566;2022-12-29T05:02:03;3.50;99.90
22145;DHT22;11238;48.730;11.566;2022-12-29T05:04:30;3.50;99.90
22145;DHT22;11238;48.730;11.566;2022-12-29T05:06:56;3.50;99.90
22145;DHT22;11238;48.730;11.566;2022-12-29T05:09:22;3.60;99.90
22145;DHT22;11238;48.730;11.566;2022-12-29T05:11:49;3.60;99.90
22145;DHT22;11238;48.730;11.566;2022-12-29T05:14:15;3.60;99.90
22145;DHT22;11238;48.730;11.566;2022-12-29T05:16:42;3.60;99.90
22145;DHT22;11238;48.730;11.566;2022-12-29T05:19:08;3.60;99.90
22145;DHT22;11238;48.730;11.566;2022-12-29T05:21:34;3.60;99.90
22145;DHT22;11238;48.730;11.566;2022-12-29T05:24:00;3.60;99.90
22145;DHT22;11238;48.730;11.566;2022-12-29T05:26:27;3.60;99.90
22145;DHT22;11238;48.730;11.566;2022-12-29T05:29:11;3.60;99.90
22145;DHT22;11238;48.730;11.566;2022-12-29T05:31:37;3.70;99.90
22145;DHT22;11238;48.730;11.566;2022-12-29T05:34:04;3.70;99.90
22145;DHT22;11238;48.730;11.566;2022-12-29T05:36:30;3.70;99.90
22145;DHT22;11238;48.730;11.566;2022-12-29T05:38:58;3.70;99.90
22145;DHT22;11238;48.730;11.566;2022-12-29T05:41:24;3.70;99.90
22145;DHT22;11238;48.730;11.566;2022-12-29T05:44:11;3.80;99.90
22145;DHT22;11238;48.730;11.566;2022-12-29T05:46:49;3.80;99.90
22145;DHT22;11238;48.730;11.566;2022-12-29T05:49:44;3.80;99.90
22145;DHT22;11238;48.730;11.566;2022-12-29T05:52:39;3.80;99.90
22145;DHT22;11238;48.730;11.566;2022-12-29T05:55:05;3.80;99.90
22145;DHT22;11238;48.730;11.566;2022-12-29T05:57:32;3.80;99.90
22145;DHT22;11238;48.730;11.566;2022-12-29T06:00:07;3.80;99.90
22145;DHT22;11238;48.730;11.566;2022-12-29T06:02:40;3.80;99.90
22145;DHT22;11238;48.730;11.566;2022-12-29T06:05:07;3.90;99.90
22145;DHT22;11238;48.730;11.566;2022-12-29T06:07:34;3.90;99.90
22145;DHT22;11238;48.730;11.566;2022-12-29T06:10:01;3.90;99.90
22145;DHT22;11238;48.730;11.566;2022-12-29T06:12:31;3.90;99.90
22145;DHT22;11238;48.730;11.566;2022-12-29T06:14:57;3.90;99.90
22145;DHT22;11238;48.730;11.566;2022-12-29T06:17:23;3.90;99.90
22145;DHT22;11238;48.730;11.566;2022-12-29T06:19:50;3.90;99.90
22145;DHT22;11238;48.730;11.566;2022-12-29T06:22:17;3.90;99.90
22145;DHT22;11238;48.730;11.566;2022-12-29T06:24:43;3.90;99.90
22145;DHT22;11238;48.730;11.566;2022-12-29T06:27:09;3.90;99.90
22145;DHT22;11238;48.730;11.566;2022-12-29T06:29:36;3.80;99.90
22145;DHT22;11238;48.730;11.566;2022-12-29T06:32:03;3.90;99.90
22145;DHT22;11238;48.730;11.566;2022-12-29T06:34:31;3.90;99.90
22145;DHT22;11238;48.730;11.566;2022-12-29T06:36:57;3.90;99.90
22145;DHT22;11238;48.730;11.566;2022-12-29T06:39:22;3.90;99.90
22145;DHT22;11238;48.730;11.566;2022-12-29T06:41:59;3.90;99.90
22145;DHT22;11238;48.730;11.566;2022-12-29T06:44:48;3.90;99.90
22145;DHT22;11238;48.730;11.566;2022-12-29T06:47:15;3.90;99.90
22145;DHT22;11238;48.730;11.566;2022-12-29T06:49:41;3.80;99.90
22145;DHT22;11238;48.730;11.566;2022-12-29T06:52:07;3.80;99.90
22145;DHT22;11238;48.730;11.566;2022-12-29T06:54:33;3.80;99.90
22145;DHT22;11238;48.730;11.566;2022-12-29T06:57:00;3.70;99.90
22145;DHT22;11238;48.730;11.566;2022-12-29T06:59:25;3.60;99.90
22145;DHT22;11238;48.730;11.566;2022-12-29T07:01:51;3.70;99.90
22145;DHT22;11238;48.730;11.566;2022-12-29T07:04:17;3.60;99.90
22145;DHT22;11238;48.730;11.566;2022-12-29T07:06:43;3.70;99.90
22145;DHT22;11238;48.730;11.566;2022-12-29T07:09:09;3.70;99.90
22145;DHT22;11238;48.730;11.566;2022-12-29T07:11:36;3.80;99.90
22145;DHT22;11238;48.730;11.566;2022-12-29T07:14:02;3.70;99.90
22145;DHT22;11238;48.730;11.566;2022-12-29T07:16:29;3.70;99.90
22145;DHT22;11238;48.730;11.566;2022-12-29T07:18:58;3.60;99.90
22145;DHT22;11238;48.730;11.566;2022-12-29T07:21:25;3.60;99.90
22145;DHT22;11238;48.730;11.566;2022-12-29T07:23:51;3.60;99.90
22145;DHT22;11238;48.730;11.566;2022-12-29T07:26:16;3.60;99.90
22145;DHT22;11238;48.730;11.566;2022-12-29T07:28:44;3.60;99.90
22145;DHT22;11238;48.730;11.566;2022-12-29T07:31:21;3.60;99.90
22145;DHT22;11238;48.730;11.566;2022-12-29T07:33:48;3.70;99.90
22145;DHT22;11238;48.730;11.566;2022-12-29T07:36:16;3.80;99.90
22145;DHT22;11238;48.730;11.566;2022-12-29T07:38:42;3.80;99.90
22145;DHT22;11238;48.730;11.566;2022-12-29T07:41:08;3.90;99.90
22145;DHT22;11238;48.730;11.566;2022-12-29T07:43:34;4.10;99.90
22145;DHT22;11238;48.730;11.566;2022-12-29T07:46:19;4.10;99.90
22145;DHT22;11238;48.730;11.566;2022-12-29T07:48:45;4.30;99.90
22145;DHT22;11238;48.730;11.566;2022-12-29T07:51:11;4.40;99.90
22145;DHT22;11238;48.730;11.566;2022-12-29T07:53:37;4.50;99.90
22145;DHT22;11238;48.730;11.566;2022-12-29T07:56:02;4.70;99.90
22145;DHT22;11238;48.730;11.566;2022-12-29T07:58:29;4.80;99.90
22145;DHT22;11238;48.730;11.566;2022-12-29T08:00:55;4.90;99.90
22145;DHT22;11238;48.730;11.566;2022-12-29T08:03:21;5.00;99.90
22145;DHT22;11238;48.730;11.566;2022-12-29T08:05:48;5.00;99.90
22145;DHT22;11238;48.730;11.566;2022-12-29T08:08:15;5.10;99.90
22145;DHT22;11238;48.730;11.566;2022-12-29T08:10:44;5.20;99.90
22145;DHT22;11238;48.730;11.566;2022-12-29T08:13:10;5.30;99.90
22145;DHT22;11238;48.730;11.566;2022-12-29T08:15:38;5.30;99.90
22145;DHT22;11238;48.730;11.566;2022-12-29T08:18:04;5.40;99.90
22145;DHT22;11238;48.730;11.566;2022-12-29T08:20:30;5.60;99.90
22145;DHT22;11238;48.730;11.566;2022-12-29T08:22:56;5.70;99.90
22145;DHT22;11238;48.730;11.566;2022-12-29T08:25:22;5.70;99.90
22145;DHT22;11238;48.730;11.566;2022-12-29T08:27:48;5.90;99.90
22145;DHT22;11238;48.730;11.566;2022-12-29T08:30:13;6.00;99.90
22145;DHT22;11238;48.730;11.566;2022-12-29T08:32:40;6.20;99.90
22145;DHT22;11238;48.730;11.566;2022-12-29T08:35:06;6.40;99.90
22145;DHT22;11238;48.730;11.566;2022-12-29T08:37:33;6.60;99.90
22145;DHT22;11238;48.730;11.566;2022-12-29T08:39:59;6.60;99.90
22145;DHT22;11238;48.730;11.566;2022-12-29T08:42:31;6.80;99.90
22145;DHT22;11238;48.730;11.566;2022-12-29T08:44:59;6.90;99.90
22145;DHT22;11238;48.730;11.566;2022-12-29T08:47:25;7.10;99.90
22145;DHT22;11238;48.730;11.566;2022-12-29T08:49:51;7.40;99.90
22145;DHT22;11238;48.730;11.566;2022-12-29T08:52:17;7.80;99.90
22145;DHT22;11238;48.730;11.566;2022-12-29T08:54:43;8.10;99.90
22145;DHT22;11238;48.730;11.566;2022-12-29T08:57:09;8.40;99.90
22145;DHT22;11238;48.730;11.566;2022-12-29T08:59:43;8.60;99.90
22145;DHT22;11238;48.730;11.566;2022-12-29T09:02:11;9.00;99.90
22145;DHT22;11238;48.730;11.566;2022-12-29T09:04:37;9.20;99.90
22145;DHT22;11238;48.730;11.566;2022-12-29T09:07:03;9.20;99.90
22145;DHT22;11238;48.730;11.566;2022-12-29T09:09:29;9.20;99.90
22145;DHT22;11238;48.730;11.566;2022-12-29T09:11:56;9.20;99.90
22145;DHT22;11238;48.730;11.566;2022-12-29T09:14:22;9.30;99.90
22145;DHT22;11238;48.730;11.566;2022-12-29T09:16:51;9.30;99.90
22145;DHT22;11238;48.730;11.566;2022-12-29T09:19:35;9.40;99.90
22145;DHT22;11238;48.730;11.566;2022-12-29T09:22:01;9.50;99.90
22145;DHT22;11238;48.730;11.566;2022-12-29T09:24:27;9.50;99.90
22145;DHT22;11238;48.730;11.566;2022-12-29T09:26:52;9.50;99.90
22145;DHT22;11238;48.730;11.566;2022-12-29T09:29:18;9.40;99.90
22145;DHT22;11238;48.730;11.566;2022-12-29T09:31:44;9.40;99.90
22145;DHT22;11238;48.730;11.566;2022-12-29T09:34:09;9.40;99.90
22145;DHT22;11238;48.730;11.566;2022-12-29T09:36:35;9.40;99.90
22145;DHT22;11238;48.730;11.566;2022-12-29T09:39:01;9.40;99.90
22145;DHT22;11238;48.730;11.566;2022-12-29T09:41:36;9.40;99.90
22145;DHT22;11238;48.730;11.566;2022-12-29T09:44:16;9.50;99.90
22145;DHT22;11238;48.730;11.566;2022-12-29T09:46:51;9.50;99.90
22145;DHT22;11238;48.730;11.566;2022-12-29T09:49:43;9.50;99.80
22145;DHT22;11238;48.730;11.566;2022-12-29T09:52:26;9.60;99.50
22145;DHT22;11238;48.730;11.566;2022-12-29T09:54:58;9.90;99.50
22145;DHT22;11238;48.730;11.566;2022-12-29T09:57:32;10.10;99.40
22145;DHT22;11238;48.730;11.566;2022-12-29T10:00:03;10.30;99.90
22145;DHT22;11238;48.730;11.566;2022-12-29T10:02:44;10.60;97.50
22145;DHT22;11238;48.730;11.566;2022-12-29T10:10:35;11.10;98.10
22145;DHT22;11238;48.730;11.566;2022-12-29T10:16:05;10.90;98.10
22145;DHT22;11238;48.730;11.566;2022-12-29T10:21:35;10.80;96.30
22145;DHT22;11238;48.730;11.566;2022-12-29T10:24:09;11.20;96.40
22145;DHT22;11238;48.730;11.566;2022-12-29T10:26:41;11.60;96.10
22145;DHT22;11238;48.730;11.566;2022-12-29T10:29:24;11.70;95.50
22145;DHT22;11238;48.730;11.566;2022-12-29T10:31:59;12.00;95.90
22145;DHT22;11238;48.730;11.566;2022-12-29T10:34:34;12.00;94.90
22145;DHT22;11238;48.730;11.566;2022-12-29T10:39:55;11.90;94.00
22145;DHT22;11238;48.730;11.566;2022-12-29T10:44:49;12.10;94.20
22145;DHT22;11238;48.730;11.566;2022-12-29T10:47:19;12.10;93.20
22145;DHT22;11238;48.730;11.566;2022-12-29T10:49:47;12.30;93.20
22145;DHT22;11238;48.730;11.566;2022-12-29T10:52:15;12.30;93.00
22145;DHT22;11238;48.730;11.566;2022-12-29T10:54:53;12.30;92.10
22145;DHT22;11238;48.730;11.566;2022-12-29T10:57:30;12.30;93.50
22145;DHT22;11238;48.730;11.566;2022-12-29T10:59:57;12.40;93.60
22145;DHT22;11238;48.730;11.566;2022-12-29T11:05:28;12.20;92.50
22145;DHT22;11238;48.730;11.566;2022-12-29T11:08:02;12.20;92.40
22145;DHT22;11238;48.730;11.566;2022-12-29T11:10:37;12.20;92.50
22145;DHT22;11238;48.730;11.566;2022-12-29T11:13:15;12.30;92.30
22145;DHT22;11238;48.730;11.566;2022-12-29T11:15:47;12.30;92.30
22145;DHT22;11238;48.730;11.566;2022-12-29T11:18:25;12.40;92.40
22145;DHT22;11238;48.730;11.566;2022-12-29T11:24:02;12.50;92.00
22145;DHT22;11238;48.730;11.566;2022-12-29T11:26:32;12.50;93.10
22145;DHT22;11238;48.730;11.566;2022-12-29T11:31:54;12.60;92.40
22145;DHT22;11238;48.730;11.566;2022-12-29T11:39:55;12.60;92.10
22145;DHT22;11238;48.730;11.566;2022-12-29T11:42:41;12.50;93.10
22145;DHT22;11238;48.730;11.566;2022-12-29T11:45:18;12.50;92.30
22145;DHT22;11238;48.730;11.566;2022-12-29T11:47:47;12.50;92.60
22145;DHT22;11238;48.730;11.566;2022-12-29T11:50:23;12.60;92.10
22145;DHT22;11238;48.730;11.566;2022-12-29T11:53:00;12.80;91.40
22145;DHT22;11238;48.730;11.566;2022-12-29T11:55:28;13.00;91.10
22145;DHT22;11238;48.730;11.566;2022-12-29T11:57:56;13.20;91.80
22145;DHT22;11238;48.730;11.566;2022-12-29T12:00:24;13.40;91.90
22145;DHT22;11238;48.730;11.566;2022-12-29T12:03:21;13.50;91.50
22145;DHT22;11238;48.730;11.566;2022-12-29T12:05:50;13.70;90.60
22145;DHT22;11238;48.730;11.566;2022-12-29T12:08:38;13.80;90.90
22145;DHT22;11238;48.730;11.566;2022-12-29T12:11:13;13.90;89.90
22145;DHT22;11238;48.730;11.566;2022-12-29T12:13:50;13.90;90.50
22145;DHT22;11238;48.730;11.566;2022-12-29T12:16:22;13.90;90.90
22145;DHT22;11238;48.730;11.566;2022-12-29T12:18:55;13.80;91.40
22145;DHT22;11238;48.730;11.566;2022-12-29T12:21:40;13.70;90.20
22145;DHT22;11238;48.730;11.566;2022-12-29T12:24:32;13.50;90.30
22145;DHT22;11238;48.730;11.566;2022-12-29T12:27:19;13.50;90.50
22145;DHT22;11238;48.730;11.566;2022-12-29T12:30:00;13.40;90.60
22145;DHT22;11238;48.730;11.566;2022-12-29T12:35:03;13.30;90.80
22145;DHT22;11238;48.730;11.566;2022-12-29T12:49:05;12.90;91.80
22145;DHT22;11238;48.730;11.566;2022-12-29T12:51:47;12.80;91.50
22145;DHT22;11238;48.730;11.566;2022-12-29T13:00:08;12.70;91.70
22145;DHT22;11238;48.730;11.566;2022-12-29T13:13:46;12.60;91.90
22145;DHT22;11238;48.730;11.566;2022-12-29T13:22:22;12.50;92.40
22145;DHT22;11238;48.730;11.566;2022-12-29T13:25:02;12.50;92.20
22145;DHT22;11238;48.730;11.566;2022-12-29T13:30:30;12.40;92.50
22145;DHT22;11238;48.730;11.566;2022-12-29T13:35:56;12.40;92.80
22145;DHT22;11238;48.730;11.566;2022-12-29T13:41:32;12.40;92.20
22145;DHT22;11238;48.730;11.566;2022-12-29T13:44:01;12.30;92.40
22145;DHT22;11238;48.730;11.566;2022-12-29T13:46:39;12.30;92.90
22145;DHT22;11238;48.730;11.566;2022-12-29T13:49:30;12.20;92.80
22145;DHT22;11238;48.730;11.566;2022-12-29T13:52:07;12.20;92.60
22145;DHT22;11238;48.730;11.566;2022-12-29T13:55:03;12.20;93.40
22145;DHT22;11238;48.730;11.566;2022-12-29T13:57:45;12.20;92.70
22145;DHT22;11238;48.730;11.566;2022-12-29T14:00:16;12.20;93.20
22145;DHT22;11238;48.730;11.566;2022-12-29T14:02:52;12.20;93.30
22145;DHT22;11238;48.730;11.566;2022-12-29T14:05:28;12.10;93.30
22145;DHT22;11238;48.730;11.566;2022-12-29T14:08:00;12.10;93.60
22145;DHT22;11238;48.730;11.566;2022-12-29T14:10:37;12.10;92.90
22145;DHT22;11238;48.730;11.566;2022-12-29T14:13:19;12.20;93.00
22145;DHT22;11238;48.730;11.566;2022-12-29T14:15:55;12.10;93.50
22145;DHT22;11238;48.730;11.566;2022-12-29T14:18:25;12.00;93.80
22145;DHT22;11238;48.730;11.566;2022-12-29T14:23:43;12.00;93.90
22145;DHT22;11238;48.730;11.566;2022-12-29T14:28:40;12.00;94.40
22145;DHT22;11238;48.730;11.566;2022-12-29T14:39:42;11.90;94.90
22145;DHT22;11238;48.730;11.566;2022-12-29T14:44:52;11.80;95.10
22145;DHT22;11238;48.730;11.566;2022-12-29T14:47:31;11.70;95.90
22145;DHT22;11238;48.730;11.566;2022-12-29T14:50:17;11.60;96.00
22145;DHT22;11238;48.730;11.566;2022-12-29T14:52:48;11.60;96.20
22145;DHT22;11238;48.730;11.566;2022-12-29T14:57:52;11.50;96.30
22145;DHT22;11238;48.730;11.566;2022-12-29T15:00:32;11.40;96.20
22145;DHT22;11238;48.730;11.566;2022-12-29T15:07:59;11.10;97.20
22145;DHT22;11238;48.730;11.566;2022-12-29T15:10:27;11.10;97.30
22145;DHT22;11238;48.730;11.566;2022-12-29T15:13:09;11.00;97.50
22145;DHT22;11238;48.730;11.566;2022-12-29T15:15:40;11.10;97.50
22145;DHT22;11238;48.730;11.566;2022-12-29T15:18:22;11.00;97.50
22145;DHT22;11238;48.730;11.566;2022-12-29T15:20:55;11.00;97.60
22145;DHT22;11238;48.730;11.566;2022-12-29T15:23:23;11.00;97.50
22145;DHT22;11238;48.730;11.566;2022-12-29T15:26:00;11.00;97.70
22145;DHT22;11238;48.730;11.566;2022-12-29T15:28:28;11.00;97.60
22145;DHT22;11238;48.730;11.566;2022-12-29T15:31:04;11.00;97.30
22145;DHT22;11238;48.730;11.566;2022-12-29T15:33:30;11.00;97.20
22145;DHT22;11238;48.730;11.566;2022-12-29T15:36:03;11.00;97.10
22145;DHT22;11238;48.730;11.566;2022-12-29T15:38:29;11.00;98.30
22145;DHT22;11238;48.730;11.566;2022-12-29T15:41:28;10.90;98.00
22145;DHT22;11238;48.730;11.566;2022-12-29T15:46:33;10.90;97.30
22145;DHT22;11238;48.730;11.566;2022-12-29T15:48:59;10.80;97.80
22145;DHT22;11238;48.730;11.566;2022-12-29T15:51:28;10.90;97.70
22145;DHT22;11238;48.730;11.566;2022-12-29T15:53:55;10.80;97.40
22145;DHT22;11238;48.730;11.566;2022-12-29T15:56:22;10.80;97.50
22145;DHT22;11238;48.730;11.566;2022-12-29T15:58:51;10.80;97.80
22145;DHT22;11238;48.730;11.566;2022-12-29T16:01:34;10.80;97.60
22145;DHT22;11238;48.730;11.566;2022-12-29T16:04:06;10.70;97.80
22145;DHT22;11238;48.730;11.566;2022-12-29T16:06:35;10.60;98.20
22145;DHT22;11238;48.730;11.566;2022-12-29T16:09:07;10.60;98.10
22145;DHT22;11238;48.730;11.566;2022-12-29T16:11:41;10.60;98.70
22145;DHT22;11238;48.730;11.566;2022-12-29T16:14:21;10.50;98.50
22145;DHT22;11238;48.730;11.566;2022-12-29T16:16:49;10.40;98.70
22145;DHT22;11238;48.730;11.566;2022-12-29T16:19:29;10.30;99.30
22145;DHT22;11238;48.730;11.566;2022-12-29T16:21:58;10.10;99.60
22145;DHT22;11238;48.730;11.566;2022-12-29T16:24:28;10.00;99.70
22145;DHT22;11238;48.730;11.566;2022-12-29T16:27:06;9.90;99.80
22145;DHT22;11238;48.730;11.566;2022-12-29T16:29:34;9.80;99.90
22145;DHT22;11238;48.730;11.566;2022-12-29T16:32:00;9.80;99.90
22145;DHT22;11238;48.730;11.566;2022-12-29T16:34:30;9.70;99.90
22145;DHT22;11238;48.730;11.566;2022-12-29T16:37:01;9.60;99.90
22145;DHT22;11238;48.730;11.566;2022-12-29T16:39:34;9.60;99.90
22145;DHT22;11238;48.730;11.566;2022-12-29T16:42:01;9.60;99.90
22145;DHT22;11238;48.730;11.566;2022-12-29T16:44:29;9.50;99.90
22145;DHT22;11238;48.730;11.566;2022-12-29T16:49:38;9.50;99.90
22145;DHT22;11238;48.730;11.566;2022-12-29T16:52:18;9.50;99.90
22145;DHT22;11238;48.730;11.566;2022-12-29T16:54:51;9.40;99.90
22145;DHT22;11238;48.730;11.566;2022-12-29T16:57:27;9.40;99.90
22145;DHT22;11238;48.730;11.566;2022-12-29T16:59:56;9.30;99.90
22145;DHT22;11238;48.730;11.566;2022-12-29T17:02:25;9.30;99.90
22145;DHT22;11238;48.730;11.566;2022-12-29T17:04:51;9.20;99.90
22145;DHT22;11238;48.730;11.566;2022-12-29T17:07:24;9.20;99.90
22145;DHT22;11238;48.730;11.566;2022-12-29T17:09:50;9.10;99.90
22145;DHT22;11238;48.730;11.566;2022-12-29T17:12:25;9.10;99.90
22145;DHT22;11238;48.730;11.566;2022-12-29T17:15:00;9.10;99.90
22145;DHT22;11238;48.730;11.566;2022-12-29T17:17:33;9.00;99.90
22145;DHT22;11238;48.730;11.566;2022-12-29T17:20:15;8.90;99.90
22145;DHT22;11238;48.730;11.566;2022-12-29T17:22:42;8.80;99.90
22145;DHT22;11238;48.730;11.566;2022-12-29T17:25:11;8.80;99.90
22145;DHT22;11238;48.730;11.566;2022-12-29T17:27:47;8.70;99.90
22145;DHT22;11238;48.730;11.566;2022-12-29T17:30:17;8.70;99.90
22145;DHT22;11238;48.730;11.566;2022-12-29T17:32:52;8.60;99.90
22145;DHT22;11238;48.730;11.566;2022-12-29T17:35:19;8.60;99.90
22145;DHT22;11238;48.730;11.566;2022-12-29T17:37:46;8.50;99.90
22145;DHT22;11238;48.730;11.566;2022-12-29T17:40:17;8.50;99.90
22145;DHT22;11238;48.730;11.566;2022-12-29T17:42:47;8.60;99.90
22145;DHT22;11238;48.730;11.566;2022-12-29T17:45:24;8.50;99.90
22145;DHT22;11238;48.730;11.566;2022-12-29T17:47:51;8.60;99.90
22145;DHT22;11238;48.730;11.566;2022-12-29T17:50:18;8.70;99.90
22145;DHT22;11238;48.730;11.566;2022-12-29T17:53:05;8.70;99.90
22145;DHT22;11238;48.730;11.566;2022-12-29T17:55:32;8.80;99.90
22145;DHT22;11238;48.730;11.566;2022-12-29T17:57:57;8.80;99.90
22145;DHT22;11238;48.730;11.566;2022-12-29T18:00:29;8.90;99.90
22145;DHT22;11238;48.730;11.566;2022-12-29T18:02:57;8.90;99.90
22145;DHT22;11238;48.730;11.566;2022-12-29T18:05:29;8.90;99.90
22145;DHT22;11238;48.730;11.566;2022-12-29T18:07:56;9.00;99.90